Observation data for Roaring Springs on 08/06/2020      Previous  Date       Current Mesonet Observations  Soil Data  Daily Summary Page  Observations in Plain Language
KRRS 060500Z 06006KT 24/19 A30 RMK A01 T02430192  RH  077%=      5-min Rain = 0
KRRS 060505Z 06007KT 24/19 A30 RMK A01 T02420192  RH  078%=      5-min Rain = 0
KRRS 060510Z 07007KT 24/19 A30 RMK A01 T02420192  RH  078%=      5-min Rain = 0
KRRS 060515Z 07006KT 24/19 A30 RMK A01 T02410192  RH  079%=      5-min Rain = 0
KRRS 060520Z 07006KT 24/19 A30 RMK A01 T02400192  RH  079%=      5-min Rain = 0
KRRS 060525Z 07007KT 24/19 A30 RMK A01 T02380192  RH  080%=      5-min Rain = 0
KRRS 060530Z 07007KT 24/19 A30 RMK A01 T02380192  RH  080%=      5-min Rain = 0
KRRS 060535Z 07007KT 24/19 A30 RMK A01 T02370192  RH  080%=      5-min Rain = 0
KRRS 060540Z 07006KT 24/19 A30 RMK A01 T02370192  RH  081%=      5-min Rain = 0
KRRS 060545Z 07006KT 24/19 A2999 RMK A01 T02360192  RH  081%=      5-min Rain = 0
KRRS 060550Z 07006KT 24/19 A2999 RMK A01 T02350192  RH  081%=      5-min Rain = 0
KRRS 060555Z 07006KT 23/19 A2999 RMK A01 T02340192  RH  082%=      5-min Rain = 0
KRRS 060600Z 07006KT 23/19 A2999 RMK A01 T02340192  RH  082%=      5-min Rain = 0
KRRS 060605Z 07007KT 23/19 A2999 RMK A01 T02330192  RH  082%=      5-min Rain = 0
KRRS 060610Z 08005KT 23/19 A2999 RMK A01 T02330192  RH  083%=      5-min Rain = 0
KRRS 060615Z 07005KT 23/19 A2999 RMK A01 T02320192  RH  083%=      5-min Rain = 0
KRRS 060620Z 07004KT 23/19 A2999 RMK A01 T02310192  RH  083%=      5-min Rain = 0
KRRS 060625Z 06004KT 23/19 A2999 RMK A01 T02300192  RH  084%=      5-min Rain = 0
KRRS 060630Z 07004KT 23/19 A2999 RMK A01 T02290192  RH  084%=      5-min Rain = 0
KRRS 060635Z 07004KT 23/19 A2999 RMK A01 T02280191  RH  084%=      5-min Rain = 0
KRRS 060640Z 07005KT 23/19 A2999 RMK A01 T02280192  RH  085%=      5-min Rain = 0
KRRS 060645Z 07005KT 23/19 A2999 RMK A01 T02280192  RH  085%=      5-min Rain = 0
KRRS 060650Z 07005KT 23/19 A2999 RMK A01 T02280192  RH  085%=      5-min Rain = 0
KRRS 060655Z 07005KT 23/19 A2999 RMK A01 T02280192  RH  085%=      5-min Rain = 0
KRRS 060700Z 07004KT 23/19 A2999 RMK A01 T02270193  RH  085%=      5-min Rain = 0
KRRS 060705Z 07004KT 23/19 A2999 RMK A01 T02270192  RH  086%=      5-min Rain = 0
KRRS 060710Z 08004KT 23/19 A2999 RMK A01 T02260193  RH  086%=      5-min Rain = 0
KRRS 060715Z 08004KT 23/19 A2999 RMK A01 T02260193  RH  086%=      5-min Rain = 0
KRRS 060720Z 08004KT 23/19 A2998 RMK A01 T02260193  RH  087%=      5-min Rain = 0
KRRS 060725Z 09005KT 23/19 A2998 RMK A01 T02260194  RH  087%=      5-min Rain = 0
KRRS 060730Z 09004KT 23/19 A2998 RMK A01 T02250194  RH  087%=      5-min Rain = 0
KRRS 060735Z 09003KT 23/19 A2998 RMK A01 T02250194  RH  087%=      5-min Rain = 0
KRRS 060740Z 08003KT 22/19 A2999 RMK A01 T02240193  RH  087%=      5-min Rain = 0
KRRS 060745Z 08003KT 22/19 A2999 RMK A01 T02230193  RH  088%=      5-min Rain = 0
KRRS 060750Z 09003KT 22/19 A2999 RMK A01 T02220193  RH  088%=      5-min Rain = 0
KRRS 060755Z 10002KT 22/19 A2998 RMK A01 T02210193  RH  089%=      5-min Rain = 0
KRRS 060800Z 09002KT 22/19 A2998 RMK A01 T02210192  RH  089%=      5-min Rain = 0
KRRS 060805Z 08002KT 22/19 A2998 RMK A01 T02200193  RH  089%=      5-min Rain = 0
KRRS 060810Z 08003KT 22/19 A2998 RMK A01 T02200192  RH  089%=      5-min Rain = 0
KRRS 060815Z 08003KT 22/19 A2998 RMK A01 T02200193  RH  090%=      5-min Rain = 0
KRRS 060820Z 09003KT 22/19 A2998 RMK A01 T02200194  RH  090%=      5-min Rain = 0
KRRS 060825Z 09002KT 22/19 A2998 RMK A01 T02190193  RH  090%=      5-min Rain = 0
KRRS 060830Z 10002KT 22/19 A2998 RMK A01 T02180193  RH  090%=      5-min Rain = 0
KRRS 060835Z 10003KT 22/19 A2998 RMK A01 T02180193  RH  091%=      5-min Rain = 0
KRRS 060840Z 10002KT 22/19 A2998 RMK A01 T02180193  RH  090%=      5-min Rain = 0
KRRS 060845Z 11003KT 22/19 A2998 RMK A01 T02180193  RH  091%=      5-min Rain = 0
KRRS 060850Z 12003KT 22/19 A2998 RMK A01 T02180193  RH  091%=      5-min Rain = 0
KRRS 060855Z 13003KT 22/19 A2998 RMK A01 T02170192  RH  091%=      5-min Rain = 0
KRRS 060900Z 14004KT 22/19 A2998 RMK A01 T02170194  RH  092%=      5-min Rain = 0
KRRS 060905Z 14005KT 22/20 A2997 RMK A01 T02170195  RH  092%=      5-min Rain = 0
KRRS 060910Z 14004KT 22/19 A2997 RMK A01 T02170194  RH  092%=      5-min Rain = 0
KRRS 060915Z 13004KT 22/19 A2997 RMK A01 T02160194  RH  093%=      5-min Rain = 0
KRRS 060920Z 13003KT 22/19 A2997 RMK A01 T02150194  RH  093%=      5-min Rain = 0
KRRS 060925Z 13003KT 21/19 A2997 RMK A01 T02140194  RH  093%=      5-min Rain = 0
KRRS 060930Z 12003KT 21/19 A2997 RMK A01 T02130194  RH  094%=      5-min Rain = 0
KRRS 060935Z 12003KT 21/19 A2997 RMK A01 T02130193  RH  094%=      5-min Rain = 0
KRRS 060940Z 11002KT 21/19 A2997 RMK A01 T02120193  RH  094%=      5-min Rain = 0
KRRS 060945Z 05001KT 21/19 A2998 RMK A01 T02100192  RH  094%=      5-min Rain = 0
KRRS 060950Z 00003KT 21/19 A2998 RMK A01 T02070190  RH  095%=      5-min Rain = 0
KRRS 060955Z 01004KT 20/19 A2998 RMK A01 T02040189  RH  096%=      5-min Rain = 0
KRRS 061000Z 01003KT 20/19 A2999 RMK A01 T02020189  RH  097%=      5-min Rain = 0
KRRS 061005Z 01003KT 20/19 A2999 RMK A01 T02030190  RH  098%=      5-min Rain = 0
KRRS 061010Z 04003KT 20/19 A2998 RMK A01 T02030190  RH  098%=      5-min Rain = 0
KRRS 061015Z 06002KT 20/19 A2998 RMK A01 T02030191  RH  098%=      5-min Rain = 0
KRRS 061020Z 09002KT 21/19 A2998 RMK A01 T02050193  RH  098%=      5-min Rain = 0
KRRS 061025Z 11001KT 21/19 A2998 RMK A01 T02050192  RH  098%=      5-min Rain = 0
KRRS 061030Z 16001KT 20/19 A2998 RMK A01 T02040191  RH  097%=      5-min Rain = 0
KRRS 061035Z 18002KT 20/19 A2997 RMK A01 T02030189  RH  097%=      5-min Rain = 0
KRRS 061040Z 18003KT 20/19 A2997 RMK A01 T02010189  RH  098%=      5-min Rain = 0
KRRS 061045Z 17003KT 20/19 A2997 RMK A01 T02030193  RH  099%=      5-min Rain = 0
KRRS 061050Z 19003KT 21/19 A2997 RMK A01 T02050192  RH  098%=      5-min Rain = 0
KRRS 061055Z 19003KT 20/19 A2997 RMK A01 T02020189  RH  097%=      5-min Rain = 0
KRRS 061100Z 21004KT 20/19 A2997 RMK A01 T01980186  RH  098%=      5-min Rain = 0
KRRS 061105Z 22004KT 20/19 A2997 RMK A01 T01970187  RH  099%=      5-min Rain = 0
KRRS 061110Z 22003KT 20/19 A2997 RMK A01 T01970188  RH  100%=      5-min Rain = 0
KRRS 061115Z 23004KT 20/19 A2997 RMK A01 T01980188  RH  100%=      5-min Rain = 0
KRRS 061120Z 23004KT 20/19 A2997 RMK A01 T01980189  RH  099%=      5-min Rain = 0
KRRS 061125Z 22005KT 20/19 A2997 RMK A01 T01990189  RH  099%=      5-min Rain = 0
KRRS 061130Z 22005KT 20/19 A2997 RMK A01 T01990189  RH  099%=      5-min Rain = 0
KRRS 061135Z 22004KT 20/19 A2997 RMK A01 T02000189  RH  099%=      5-min Rain = 0
KRRS 061140Z 22004KT 20/19 A2997 RMK A01 T01990188  RH  099%=      5-min Rain = 0
KRRS 061145Z 23003KT 20/19 A2998 RMK A01 T02000189  RH  099%=      5-min Rain = 0
KRRS 061150Z 22003KT 20/19 A2998 RMK A01 T02000189  RH  099%=      5-min Rain = 0
KRRS 061155Z 21003KT 20/19 A2998 RMK A01 T02000190  RH  099%=      5-min Rain = 0
KRRS 061200Z 20003KT 20/19 A2998 RMK A01 T02010190  RH  099%=      5-min Rain = 0
KRRS 061205Z 20004KT 20/19 A2998 RMK A01 T02010189  RH  098%=      5-min Rain = 0
KRRS 061210Z 20004KT 20/19 A2998 RMK A01 T01980187  RH  098%=      5-min Rain = 0
KRRS 061215Z 20005KT 20/19 A2998 RMK A01 T01980187  RH  099%=      5-min Rain = 0
KRRS 061220Z 21004KT 20/19 A2998 RMK A01 T01960186  RH  099%=      5-min Rain = 0
KRRS 061225Z 22003KT 20/18 A2998 RMK A01 T01950184  RH  099%=      5-min Rain = 0
KRRS 061230Z 23003KT 20/19 A2998 RMK A01 T01950186  RH  100%=      5-min Rain = 0
KRRS 061235Z 21002KT 20/19 A2999 RMK A01 T01980189  RH  100%=      5-min Rain = 0
KRRS 061240Z 21002KT 20/19 A2999 RMK A01 T02010192  RH  100%=      5-min Rain = 0
KRRS 061245Z 20003KT 21/20 A2999 RMK A01 T02050195  RH  099%=      5-min Rain = 0
KRRS 061250Z 19004KT 21/20 A2999 RMK A01 T02080195  RH  098%=      5-min Rain = 0
KRRS 061255Z 18005KT 21/20 A2999 RMK A01 T02140196  RH  095%=      5-min Rain = 0
KRRS 061300Z 19005KT 22/20 A2999 RMK A01 T02200196  RH  091%=      5-min Rain = 0
KRRS 061305Z 20005KT 22/20 A2999 RMK A01 T02240196  RH  089%=      5-min Rain = 0
KRRS 061310Z 19005KT 23/19 A2999 RMK A01 T02300194  RH  085%=      5-min Rain = 0
KRRS 061315Z 18007KT 24/19 A2999 RMK A01 T02360190  RH  080%=      5-min Rain = 0
KRRS 061320Z 19007KT 24/19 A2999 RMK A01 T02410188  RH  076%=      5-min Rain = 0
KRRS 061325Z 19007KT 24/19 A2999 RMK A01 T02420187  RH  075%=      5-min Rain = 0
KRRS 061330Z 19007KT 24/19 A2999 RMK A01 T02420188  RH  076%=      5-min Rain = 0
KRRS 061335Z 19008KT 24/19 A2999 RMK A01 T02440186  RH  074%=      5-min Rain = 0
KRRS 061340Z 20009G14KT 25/18 A2999 RMK A01 T02520178  RH  067%=      5-min Rain = 0
KRRS 061345Z 20011KT 26/17 A2999 RMK A01 T02580174  RH  063%=      5-min Rain = 0
KRRS 061350Z 20012KT 26/17 A2999 RMK A01 T02630173  RH  061%=      5-min Rain = 0
KRRS 061355Z 20011KT 27/17 A2999 RMK A01 T02690173  RH  059%=      5-min Rain = 0
KRRS 061400Z 20012KT 27/17 A30 RMK A01 T02690172  RH  058%=      5-min Rain = 0
KRRS 061405Z 20010KT 27/17 A30 RMK A01 T02680172  RH  059%=      5-min Rain = 0
KRRS 061410Z 20011G16KT 27/17 A30 RMK A01 T02670171  RH  058%=      5-min Rain = 0
KRRS 061415Z 20011KT 27/17 A30 RMK A01 T02670171  RH  059%=      5-min Rain = 0
KRRS 061420Z 20012KT 27/17 A30 RMK A01 T02680171  RH  058%=      5-min Rain = 0
KRRS 061425Z 20013G18KT 27/17 A30 RMK A01 T02700172  RH  058%=      5-min Rain = 0
KRRS 061430Z 20014G21KT 28/17 A30 RMK A01 T02760173  RH  056%=      5-min Rain = 0
KRRS 061435Z 20016KT 28/17 A30 RMK A01 T02760171  RH  056%=      5-min Rain = 0
KRRS 061440Z 20016G21KT 27/17 A30 RMK A01 T02720171  RH  057%=      5-min Rain = 0
KRRS 061445Z 20015G20KT 27/17 A30 RMK A01 T02710172  RH  057%=      5-min Rain = 0
KRRS 061450Z 21013G18KT 27/17 A30 RMK A01 T02720172  RH  057%=      5-min Rain = 0
KRRS 061455Z 21017KT 27/17 A30 RMK A01 T02740172  RH  056%=      5-min Rain = 0
KRRS 061500Z 21015KT 28/17 A2999 RMK A01 T02780174  RH  056%=      5-min Rain = 0
KRRS 061505Z 21014G19KT 28/17 A2999 RMK A01 T02820174  RH  055%=      5-min Rain = 0
KRRS 061510Z 21016G24KT 29/17 A2999 RMK A01 T02860174  RH  053%=      5-min Rain = 0
KRRS 061515Z 21018G24KT 29/17 A2999 RMK A01 T02880173  RH  052%=      5-min Rain = 0
KRRS 061520Z 20015G21KT 29/17 A2999 RMK A01 T02880174  RH  053%=      5-min Rain = 0
KRRS 061525Z 21016G23KT 29/17 A2999 RMK A01 T02870173  RH  053%=      5-min Rain = 0
KRRS 061530Z 21018G25KT 28/17 A30 RMK A01 T02820171  RH  053%=      5-min Rain = 0
KRRS 061535Z 21014G21KT 28/17 A30 RMK A01 T02790171  RH  055%=      5-min Rain = 0
KRRS 061540Z 21013KT 28/17 A30 RMK A01 T02770171  RH  055%=      5-min Rain = 0
KRRS 061545Z 21014KT 28/17 A3001 RMK A01 T02760171  RH  055%=      5-min Rain = 0
KRRS 061550Z 20013KT 28/17 A3001 RMK A01 T02760172  RH  056%=      5-min Rain = 0
KRRS 061555Z 20012KT 28/17 A3001 RMK A01 T02780172  RH  055%=      5-min Rain = 0
KRRS 061600Z 20013KT 28/17 A3001 RMK A01 T02790172  RH  055%=      5-min Rain = 0
KRRS 061605Z 20014KT 28/17 A3001 RMK A01 T02810171  RH  054%=      5-min Rain = 0
KRRS 061610Z 20014KT 28/17 A3001 RMK A01 T02840171  RH  053%=      5-min Rain = 0
KRRS 061615Z 21012KT 29/17 A3001 RMK A01 T02880172  RH  052%=      5-min Rain = 0
KRRS 061620Z 20012KT 29/17 A3001 RMK A01 T02930172  RH  051%=      5-min Rain = 0
KRRS 061625Z 20014KT 30/17 A3001 RMK A01 T02960171  RH  049%=      5-min Rain = 0
KRRS 061630Z 20013KT 30/17 A3001 RMK A01 T02990171  RH  049%=      5-min Rain = 0
KRRS 061635Z 20015KT 30/17 A3001 RMK A01 T03010170  RH  048%=      5-min Rain = 0
KRRS 061640Z 20014KT 30/17 A3001 RMK A01 T03020171  RH  047%=      5-min Rain = 0
KRRS 061645Z 19014KT 31/17 A30 RMK A01 T03070171  RH  046%=      5-min Rain = 0
KRRS 061650Z 19014KT 31/17 A30 RMK A01 T03120171  RH  045%=      5-min Rain = 0
KRRS 061655Z 20013KT 32/17 A30 RMK A01 T03150167  RH  043%=      5-min Rain = 0
KRRS 061700Z 20011G17KT 32/17 A30 RMK A01 T03190165  RH  042%=      5-min Rain = 0
KRRS 061705Z 19014G19KT 33/16 A30 RMK A01 T03260161  RH  039%=      5-min Rain = 0
KRRS 061710Z 21015KT 33/16 A30 RMK A01 T03280159  RH  038%=      5-min Rain = 0
KRRS 061715Z 19016KT 32/16 A2999 RMK A01 T03240155  RH  038%=      5-min Rain = 0
KRRS 061720Z 20014G20KT 32/16 A30 RMK A01 T03230156  RH  038%=      5-min Rain = 0
KRRS 061725Z 20015KT 32/16 A30 RMK A01 T03200155  RH  039%=      5-min Rain = 0
KRRS 061730Z 20013KT 32/15 A30 RMK A01 T03190153  RH  038%=      5-min Rain = 0
KRRS 061735Z 19014KT 32/15 A30 RMK A01 T03180147  RH  037%=      5-min Rain = 0
KRRS 061740Z 21015KT 31/15 A30 RMK A01 T03140147  RH  038%=      5-min Rain = 0
KRRS 061745Z 21012G17KT 31/15 A30 RMK A01 T03110151  RH  040%=      5-min Rain = 0
KRRS 061750Z 21012KT 31/15 A30 RMK A01 T03110153  RH  040%=      5-min Rain = 0
KRRS 061755Z 21013KT 31/16 A30 RMK A01 T03120155  RH  041%=      5-min Rain = 0
KRRS 061800Z 20013KT 32/16 A2999 RMK A01 T03160157  RH  040%=      5-min Rain = 0
KRRS 061805Z 20013G18KT 32/16 A2999 RMK A01 T03210156  RH  039%=      5-min Rain = 0
KRRS 061810Z 20012KT 32/16 A2999 RMK A01 T03180158  RH  040%=      5-min Rain = 0
KRRS 061815Z 19013KT 32/16 A2999 RMK A01 T03190156  RH  039%=      5-min Rain = 0
KRRS 061820Z 19013KT 32/16 A2999 RMK A01 T03180156  RH  039%=      5-min Rain = 0
KRRS 061825Z 20012KT 32/15 A2999 RMK A01 T03190154  RH  039%=      5-min Rain = 0
KRRS 061830Z 20013KT 32/15 A2999 RMK A01 T03220150  RH  037%=      5-min Rain = 0
KRRS 061835Z 20012KT 33/15 A2999 RMK A01 T03250154  RH  037%=      5-min Rain = 0
KRRS 061840Z 19012KT 33/15 A2999 RMK A01 T03300153  RH  036%=      5-min Rain = 0
KRRS 061845Z 18013KT 33/15 A2999 RMK A01 T03320149  RH  035%=      5-min Rain = 0
KRRS 061850Z 17012KT 34/15 A2999 RMK A01 T03410151  RH  034%=      5-min Rain = 0
KRRS 061855Z 18013G18KT 35/15 A2998 RMK A01 T03470152  RH  033%=      5-min Rain = 0
KRRS 061900Z 19012KT 34/15 A2998 RMK A01 T03420151  RH  033%=      5-min Rain = 0
KRRS 061905Z 19012G18KT 34/15 A2998 RMK A01 T03420148  RH  033%=      5-min Rain = 0
KRRS 061910Z 18011G18KT 34/15 A2998 RMK A01 T03440150  RH  033%=      5-min Rain = 0
KRRS 061915Z 16012G17KT 34/15 A2998 RMK A01 T03380153  RH  035%=      5-min Rain = 0
KRRS 061920Z 17012G17KT 34/16 A2997 RMK A01 T03440156  RH  034%=      5-min Rain = 0
KRRS 061925Z 16012G17KT 35/16 A2997 RMK A01 T03450158  RH  034%=      5-min Rain = 0
KRRS 061930Z 17012KT 35/16 A2997 RMK A01 T03460159  RH  034%=      5-min Rain = 0
KRRS 061935Z 15014G19KT 35/16 A2997 RMK A01 T03530160  RH  033%=      5-min Rain = 0
KRRS 061940Z 17011KT 35/16 A2997 RMK A01 T03520158  RH  033%=      5-min Rain = 0
KRRS 061945Z 17013KT 35/16 A2997 RMK A01 T03540156  RH  032%=      5-min Rain = 0
KRRS 061950Z 17013G23KT 36/15 A2996 RMK A01 T03560152  RH  031%=      5-min Rain = 0
KRRS 061955Z 17014G21KT 36/15 A2996 RMK A01 T03610149  RH  030%=      5-min Rain = 0
KRRS 062000Z 17013G20KT 36/15 A2996 RMK A01 T03590146  RH  029%=      5-min Rain = 0
KRRS 062005Z 16014G19KT 36/14 A2996 RMK A01 T03580142  RH  029%=      5-min Rain = 0
KRRS 062010Z 17014G20KT 36/14 A2996 RMK A01 T03580142  RH  029%=      5-min Rain = 0
KRRS 062015Z 17012G17KT 36/14 A2996 RMK A01 T03580141  RH  028%=      5-min Rain = 0
KRRS 062020Z 18015G20KT 37/14 A2996 RMK A01 T03690141  RH  027%=      5-min Rain = 0
KRRS 062025Z 18014G19KT 37/14 A2995 RMK A01 T03670138  RH  027%=      5-min Rain = 0
KRRS 062030Z 20014G22KT 36/14 A2995 RMK A01 T03640135  RH  027%=      5-min Rain = 0
KRRS 062035Z 19012G19KT 36/14 A2995 RMK A01 T03620136  RH  027%=      5-min Rain = 0
KRRS 062040Z 18013G21KT 37/14 A2995 RMK A01 T03660137  RH  026%=      5-min Rain = 0
KRRS 062045Z 18014KT 36/14 A2995 RMK A01 T03640135  RH  026%=      5-min Rain = 0
KRRS 062050Z 19014G22KT 37/14 A2995 RMK A01 T03650135  RH  026%=      5-min Rain = 0
KRRS 062055Z 20014G19KT 37/13 A2995 RMK A01 T03710134  RH  025%=      5-min Rain = 0
KRRS 062100Z 16013G21KT 37/13 A2995 RMK A01 T03710134  RH  025%=      5-min Rain = 0
KRRS 062105Z 16012G18KT 37/13 A2995 RMK A01 T03680131  RH  025%=      5-min Rain = 0
KRRS 062110Z 15014G19KT 37/13 A2994 RMK A01 T03700128  RH  024%=      5-min Rain = 0
KRRS 062115Z 16014G21KT 38/13 A2994 RMK A01 T03750129  RH  024%=      5-min Rain = 0
KRRS 062120Z 17016G21KT 37/12 A2994 RMK A01 T03730124  RH  023%=      5-min Rain = 0
KRRS 062125Z 17013G21KT 37/12 A2994 RMK A01 T03680124  RH  024%=      5-min Rain = 0
KRRS 062130Z 15013G23KT 36/13 A2994 RMK A01 T03640127  RH  025%=      5-min Rain = 0
KRRS 062135Z 18014G20KT 37/13 A2993 RMK A01 T03660125  RH  024%=      5-min Rain = 0
KRRS 062140Z 18014G21KT 37/13 A2993 RMK A01 T03660125  RH  025%=      5-min Rain = 0
KRRS 062145Z 16015G22KT 37/13 A2993 RMK A01 T03650126  RH  025%=      5-min Rain = 0
KRRS 062150Z 17015G20KT 37/13 A2993 RMK A01 T03670127  RH  025%=      5-min Rain = 0
KRRS 062155Z 18014G22KT 37/13 A2993 RMK A01 T03680126  RH  024%=      5-min Rain = 0
KRRS 062200Z 16015G22KT 37/13 A2993 RMK A01 T03690128  RH  025%=      5-min Rain = 0
KRRS 062205Z 15013G19KT 38/13 A2992 RMK A01 T03750131  RH  024%=      5-min Rain = 0
KRRS 062210Z 16014G20KT 37/13 A2992 RMK A01 T03690132  RH  025%=      5-min Rain = 0
KRRS 062215Z 15015G20KT 37/13 A2992 RMK A01 T03680131  RH  025%=      5-min Rain = 0
KRRS 062220Z 15017G22KT 37/13 A2992 RMK A01 T03650133  RH  026%=      5-min Rain = 0
KRRS 062225Z 16016G22KT 36/13 A2992 RMK A01 T03620132  RH  026%=      5-min Rain = 0
KRRS 062230Z 16014G19KT 36/14 A2992 RMK A01 T03620135  RH  027%=      5-min Rain = 0
KRRS 062235Z 16013G18KT 36/13 A2992 RMK A01 T03630134  RH  026%=      5-min Rain = 0
KRRS 062240Z 16014G19KT 36/14 A2992 RMK A01 T03620135  RH  027%=      5-min Rain = 0
KRRS 062245Z 17012G17KT 36/14 A2991 RMK A01 T03640135  RH  026%=      5-min Rain = 0
KRRS 062250Z 17013G18KT 37/14 A2991 RMK A01 T03710138  RH  026%=      5-min Rain = 0
KRRS 062255Z 17014G19KT 37/14 A2991 RMK A01 T03650139  RH  027%=      5-min Rain = 0
KRRS 062300Z 16013KT 36/14 A2991 RMK A01 T03610139  RH  028%=      5-min Rain = 0
KRRS 062305Z 16015G21KT 36/14 A2991 RMK A01 T03620140  RH  028%=      5-min Rain = 0
KRRS 062310Z 16016G21KT 37/14 A299 RMK A01 T03660140  RH  027%=      5-min Rain = 0
KRRS 062315Z 16015G20KT 37/14 A299 RMK A01 T03650141  RH  028%=      5-min Rain = 0
KRRS 062320Z 17014G24KT 36/14 A2991 RMK A01 T03600140  RH  028%=      5-min Rain = 0
KRRS 062325Z 16014G22KT 36/14 A299 RMK A01 T03630141  RH  028%=      5-min Rain = 0
KRRS 062330Z 15016G28KT 37/14 A299 RMK A01 T03670142  RH  027%=      5-min Rain = 0
KRRS 062335Z 16017G25KT 36/14 A299 RMK A01 T03620144  RH  029%=      5-min Rain = 0
KRRS 062340Z 16013G19KT 36/15 A299 RMK A01 T03610145  RH  029%=      5-min Rain = 0
KRRS 062345Z 15015G21KT 36/14 A299 RMK A01 T03630144  RH  028%=      5-min Rain = 0
KRRS 062350Z 15016G22KT 36/14 A299 RMK A01 T03610140  RH  028%=      5-min Rain = 0
KRRS 062355Z 15017G23KT 36/14 A299 RMK A01 T03560144  RH  030%=      5-min Rain = 0
KRRS 070000Z 15015G22KT 35/15 A299 RMK A01 T03530146  RH  030%=      5-min Rain = 0
KRRS 070005Z 15016G23KT 36/15 A299 RMK A01 T03550146  RH  030%=      5-min Rain = 0
KRRS 070010Z 15018G28KT 36/15 A299 RMK A01 T03560147  RH  030%=      5-min Rain = 0
KRRS 070015Z 15016G25KT 35/15 A299 RMK A01 T03540147  RH  030%=      5-min Rain = 0
KRRS 070020Z 15016G21KT 35/15 A299 RMK A01 T03540146  RH  030%=      5-min Rain = 0
KRRS 070025Z 15018G24KT 35/14 A299 RMK A01 T03520144  RH  030%=      5-min Rain = 0
KRRS 070030Z 15015G22KT 35/15 A299 RMK A01 T03510145  RH  030%=      5-min Rain = 0
KRRS 070035Z 15016G21KT 35/14 A299 RMK A01 T03500144  RH  030%=      5-min Rain = 0
KRRS 070040Z 15017KT 35/14 A299 RMK A01 T03500143  RH  030%=      5-min Rain = 0
KRRS 070045Z 15014G21KT 35/14 A299 RMK A01 T03500143  RH  030%=      5-min Rain = 0
KRRS 070050Z 15011G16KT 35/14 A2991 RMK A01 T03490144  RH  031%=      5-min Rain = 0
KRRS 070055Z 16013G20KT 35/14 A2991 RMK A01 T03480142  RH  030%=      5-min Rain = 0
KRRS 070100Z 15013G18KT 35/14 A2991 RMK A01 T03470141  RH  030%=      5-min Rain = 0
KRRS 070105Z 15014KT 35/14 A2991 RMK A01 T03450141  RH  031%=      5-min Rain = 0
KRRS 070110Z 15015G20KT 34/14 A2992 RMK A01 T03430143  RH  032%=      5-min Rain = 0
KRRS 070115Z 15013G18KT 34/14 A2992 RMK A01 T03400144  RH  032%=      5-min Rain = 0
KRRS 070120Z 15013G18KT 34/15 A2992 RMK A01 T03380145  RH  033%=      5-min Rain = 0
KRRS 070125Z 14012KT 34/15 A2992 RMK A01 T03360145  RH  033%=      5-min Rain = 0
KRRS 070130Z 14012G17KT 33/15 A2992 RMK A01 T03340146  RH  034%=      5-min Rain = 0
KRRS 070135Z 14011KT 33/15 A2992 RMK A01 T03320147  RH  034%=      5-min Rain = 0
KRRS 070140Z 15010KT 33/15 A2992 RMK A01 T03300148  RH  035%=      5-min Rain = 0
KRRS 070145Z 15009KT 33/15 A2992 RMK A01 T03280148  RH  035%=      5-min Rain = 0
KRRS 070150Z 15009KT 33/15 A2992 RMK A01 T03260146  RH  035%=      5-min Rain = 0
KRRS 070155Z 15010G15KT 33/14 A2992 RMK A01 T03270144  RH  034%=      5-min Rain = 0
KRRS 070200Z 15009KT 33/14 A2993 RMK A01 T03270142  RH  034%=      5-min Rain = 0
KRRS 070205Z 15009KT 33/14 A2993 RMK A01 T03250142  RH  035%=      5-min Rain = 0
KRRS 070210Z 15009KT 32/14 A2993 RMK A01 T03240142  RH  035%=      5-min Rain = 0
KRRS 070215Z 16009KT 32/14 A2993 RMK A01 T03220142  RH  035%=      5-min Rain = 0
KRRS 070220Z 15009KT 32/14 A2993 RMK A01 T03210142  RH  035%=      5-min Rain = 0
KRRS 070225Z 16009KT 32/14 A2993 RMK A01 T03190142  RH  036%=      5-min Rain = 0
KRRS 070230Z 16011KT 32/14 A2993 RMK A01 T03200142  RH  036%=      5-min Rain = 0
KRRS 070235Z 16011KT 32/14 A2993 RMK A01 T03200142  RH  035%=      5-min Rain = 0
KRRS 070240Z 16011KT 32/14 A2993 RMK A01 T03190142  RH  036%=      5-min Rain = 0
KRRS 070245Z 15010KT 32/14 A2993 RMK A01 T03170142  RH  036%=      5-min Rain = 0
KRRS 070250Z 15008KT 32/14 A2994 RMK A01 T03160142  RH  036%=      5-min Rain = 0
KRRS 070255Z 15008KT 31/14 A2994 RMK A01 T03130142  RH  037%=      5-min Rain = 0
KRRS 070300Z 16008KT 31/14 A2994 RMK A01 T03110143  RH  038%=      5-min Rain = 0
KRRS 070305Z 16008KT 31/14 A2994 RMK A01 T03090143  RH  038%=      5-min Rain = 0
KRRS 070310Z 16009KT 31/14 A2994 RMK A01 T03080143  RH  038%=      5-min Rain = 0
KRRS 070315Z 16008KT 31/14 A2994 RMK A01 T03080143  RH  038%=      5-min Rain = 0
KRRS 070320Z 16009KT 31/14 A2994 RMK A01 T03060143  RH  039%=      5-min Rain = 0
KRRS 070325Z 17008G13KT 31/14 A2995 RMK A01 T03050143  RH  039%=      5-min Rain = 0
KRRS 070330Z 17009KT 30/14 A2995 RMK A01 T03040143  RH  039%=      5-min Rain = 0
KRRS 070335Z 17010KT 30/14 A2995 RMK A01 T03040142  RH  039%=      5-min Rain = 0
KRRS 070340Z 17010KT 31/14 A2995 RMK A01 T03050140  RH  038%=      5-min Rain = 0
KRRS 070345Z 18010KT 31/14 A2995 RMK A01 T03050139  RH  038%=      5-min Rain = 0
KRRS 070350Z 20011KT 30/14 A2996 RMK A01 T03040139  RH  038%=      5-min Rain = 0
KRRS 070355Z 21009KT 30/14 A2996 RMK A01 T03030139  RH  038%=      5-min Rain = 0
KRRS 070400Z 21008KT 30/14 A2996 RMK A01 T02980141  RH  040%=      5-min Rain = 0
KRRS 070405Z 20008KT 30/14 A2995 RMK A01 T02950141  RH  041%=      5-min Rain = 0
KRRS 070410Z 20007KT 29/14 A2995 RMK A01 T02940142  RH  041%=      5-min Rain = 0
KRRS 070415Z 20007KT 29/14 A2995 RMK A01 T02910142  RH  042%=      5-min Rain = 0
KRRS 070420Z 20007KT 29/14 A2995 RMK A01 T02880143  RH  043%=      5-min Rain = 0
KRRS 070425Z 20007KT 28/14 A2995 RMK A01 T02840144  RH  044%=      5-min Rain = 0
KRRS 070430Z 20007KT 28/15 A2995 RMK A01 T02790145  RH  046%=      5-min Rain = 0
KRRS 070435Z 19009KT 28/15 A2995 RMK A01 T02770145  RH  047%=      5-min Rain = 0
KRRS 070440Z 19009G14KT 28/15 A2995 RMK A01 T02780146  RH  046%=      5-min Rain = 0
KRRS 070445Z 19010KT 28/15 A2995 RMK A01 T02840148  RH  046%=      5-min Rain = 0
KRRS 070450Z 19009KT 28/15 A2995 RMK A01 T02840150  RH  046%=      5-min Rain = 0
KRRS 070455Z 19009KT 28/15 A2994 RMK A01 T02840151  RH  046%=      5-min Rain = 0

Page generated in 0.0088 seconds.